Time;durP1;ratioP1;P1;durP2;ratioP2;P2;SDS_P1;SDS_P2;PMS_P1;PMS_P2;Temp;Humidity;BMP_temperature;BMP_pressure;BME280_temperature;BME280_humidity;BME280_pressure;Samples;Min_cycle;Max_cycle;Signal;HPM_P1;HPM_P2
2024/03/30 00:02:11;;;;;;;8.75;4.35;;;;;;;;;;4907166;29;20033;-83
2024/03/30 00:04:56;;;;;;;6.78;3.53;;;;;;;;;;4906974;29;20031;-84
2024/03/30 00:07:44;;;;;;;8.88;3.70;;;;;;;;;;4909488;29;20025;-83
2024/03/30 00:10:29;;;;;;;7.65;3.45;;;;;;;;;;4939542;28;20024;-83
2024/03/30 00:13:14;;;;;;;6.60;3.85;;;;;;;;;;4939128;29;20058;-84
2024/03/30 00:16:06;;;;;;;7.55;3.60;;;;;;;;;;4938913;29;20119;-83
2024/03/30 00:18:53;;;;;;;7.95;3.60;;;;;;;;;;4925038;29;20020;-84
2024/03/30 00:21:38;;;;;;;7.00;3.75;;;;;;;;;;4939046;29;20030;-84
2024/03/30 00:24:24;;;;;;;7.18;3.20;;;;;;;;;;4926038;29;20027;-83
2024/03/30 00:27:09;;;;;;;6.18;3.20;;;;;;;;;;4938980;28;20102;-83
2024/03/30 00:29:55;;;;;;;9.70;3.67;;;;;;;;;;4924253;29;20050;-83
2024/03/30 00:32:40;;;;;;;7.00;3.30;;;;;;;;;;4917712;29;20559;-83
2024/03/30 00:35:25;;;;;;;7.05;4.18;;;;;;;;;;4906748;29;20066;-83
2024/03/30 00:38:11;;;;;;;9.50;4.07;;;;;;;;;;4912819;29;20024;-83
2024/03/30 00:40:56;;;;;;;14.30;4.10;;;;;;;;;;4938805;28;20021;-83
2024/03/30 00:43:43;;;;;;;8.95;3.25;;;;;;;;;;4925223;29;20023;-82
2024/03/30 00:46:28;;;;;;;8.77;4.30;;;;;;;;;;4925188;29;20569;-83
2024/03/30 00:49:14;;;;;;;9.57;3.47;;;;;;;;;;4925576;29;20035;-82
2024/03/30 00:51:59;;;;;;;10.95;4.07;;;;;;;;;;4925256;29;20058;-83
2024/03/30 00:54:44;;;;;;;9.55;3.90;;;;;;;;;;4925023;29;20035;-83
2024/03/30 00:57:29;;;;;;;7.25;3.72;;;;;;;;;;4938704;29;20036;-82
2024/03/30 01:00:15;;;;;;;8.43;3.35;;;;;;;;;;4938171;29;20040;-82
2024/03/30 01:03:00;;;;;;;9.98;3.60;;;;;;;;;;4924831;29;20054;-82
2024/03/30 01:05:45;;;;;;;8.75;3.10;;;;;;;;;;4925491;29;20032;-84
2024/03/30 01:08:30;;;;;;;8.32;3.88;;;;;;;;;;4923314;29;20022;-83
2024/03/30 01:11:16;;;;;;;12.43;4.68;;;;;;;;;;4924199;29;20034;-83
2024/03/30 01:14:01;;;;;;;14.10;3.75;;;;;;;;;;4938252;29;20031;-84
2024/03/30 01:16:47;;;;;;;7.97;3.78;;;;;;;;;;4924581;29;20052;-83
2024/03/30 01:19:33;;;;;;;9.25;3.17;;;;;;;;;;4924816;29;20082;-83
2024/03/30 01:22:18;;;;;;;10.18;3.83;;;;;;;;;;4925036;29;20016;-84
2024/03/30 01:25:04;;;;;;;14.52;4.32;;;;;;;;;;4924633;29;20423;-83
2024/03/30 01:27:49;;;;;;;7.03;3.33;;;;;;;;;;4924942;29;20020;-83
2024/03/30 01:30:35;;;;;;;13.15;3.70;;;;;;;;;;4926165;29;20112;-83
2024/03/30 01:33:20;;;;;;;8.02;3.22;;;;;;;;;;4941688;28;20020;-83
2024/03/30 01:36:06;;;;;;;14.50;3.70;;;;;;;;;;4928232;29;20031;-84
2024/03/30 01:38:51;;;;;;;17.48;5.00;;;;;;;;;;4922381;29;20563;-83
2024/03/30 01:41:36;;;;;;;13.88;3.15;;;;;;;;;;4922699;29;20028;-84
2024/03/30 01:44:22;;;;;;;9.23;3.35;;;;;;;;;;4909068;29;20078;-83
2024/03/30 01:47:08;;;;;;;16.15;3.20;;;;;;;;;;4909318;29;20111;-83
2024/03/30 01:49:55;;;;;;;12.55;4.43;;;;;;;;;;4922600;29;20131;-84
2024/03/30 01:52:40;;;;;;;8.38;3.50;;;;;;;;;;4922323;29;20078;-83
2024/03/30 01:55:25;;;;;;;14.73;4.20;;;;;;;;;;4908684;29;20032;-84
2024/03/30 01:58:12;;;;;;;11.98;3.50;;;;;;;;;;4908972;29;20040;-83
2024/03/30 02:00:58;;;;;;;21.60;4.07;;;;;;;;;;4917690;29;20023;-84
2024/03/30 02:03:43;;;;;;;14.35;3.70;;;;;;;;;;4927848;29;20486;-83
2024/03/30 02:06:29;;;;;;;17.20;4.18;;;;;;;;;;4927629;29;20059;-83
2024/03/30 02:09:14;;;;;;;22.90;3.75;;;;;;;;;;4927566;29;20073;-83
2024/03/30 02:11:59;;;;;;;14.18;4.07;;;;;;;;;;4927594;29;20027;-84
2024/03/30 02:14:45;;;;;;;17.27;4.22;;;;;;;;;;4940946;28;20579;-83
2024/03/30 02:17:31;;;;;;;11.48;3.53;;;;;;;;;;4928046;29;20066;-83
2024/03/30 02:20:17;;;;;;;15.10;5.07;;;;;;;;;;4941013;29;20036;-84
2024/03/30 02:23:02;;;;;;;16.48;3.83;;;;;;;;;;4941438;29;20027;-84
2024/03/30 02:25:47;;;;;;;14.82;3.97;;;;;;;;;;4927445;29;20031;-83
2024/03/30 02:28:33;;;;;;;15.73;3.97;;;;;;;;;;4940669;29;20032;-84
2024/03/30 02:31:18;;;;;;;19.15;4.43;;;;;;;;;;4940522;28;20087;-85
2024/03/30 02:34:04;;;;;;;19.40;4.10;;;;;;;;;;4927651;29;20034;-84
2024/03/30 02:36:50;;;;;;;22.60;4.43;;;;;;;;;;4927156;29;20098;-84
2024/03/30 02:39:35;;;;;;;19.00;4.55;;;;;;;;;;4926645;29;20040;-84
2024/03/30 02:42:20;;;;;;;18.35;4.60;;;;;;;;;;4927011;29;20051;-85
2024/03/30 02:45:06;;;;;;;26.13;4.82;;;;;;;;;;4940308;28;20042;-84
2024/03/30 02:47:51;;;;;;;27.17;4.80;;;;;;;;;;4940394;29;20370;-82
2024/03/30 02:50:36;;;;;;;20.05;6.15;;;;;;;;;;4940071;29;20576;-84
2024/03/30 02:53:21;;;;;;;13.18;3.90;;;;;;;;;;4927260;29;20374;-84
2024/03/30 02:56:07;;;;;;;17.75;4.25;;;;;;;;;;4940091;29;20099;-84
2024/03/30 02:58:52;;;;;;;24.10;4.82;;;;;;;;;;4926902;29;20055;-83
2024/03/30 03:01:37;;;;;;;23.80;5.10;;;;;;;;;;4928381;29;20028;-84
2024/03/30 03:04:23;;;;;;;25.67;5.85;;;;;;;;;;4930661;29;20449;-84
2024/03/30 03:07:08;;;;;;;19.08;4.45;;;;;;;;;;4930338;29;20024;-84
2024/03/30 03:09:53;;;;;;;26.55;5.55;;;;;;;;;;4935459;29;20109;-83
2024/03/30 03:12:38;;;;;;;19.95;4.97;;;;;;;;;;4948192;28;20511;-84
2024/03/30 03:15:24;;;;;;;29.27;5.15;;;;;;;;;;4938067;29;20058;-83
2024/03/30 03:18:09;;;;;;;28.17;5.57;;;;;;;;;;4950884;29;20058;-84
2024/03/30 03:20:54;;;;;;;29.50;5.75;;;;;;;;;;4935801;29;20035;-84
2024/03/30 03:23:40;;;;;;;23.05;5.50;;;;;;;;;;4949976;29;20087;-83
2024/03/30 03:26:25;;;;;;;23.50;5.13;;;;;;;;;;4930515;29;20031;-84
2024/03/30 03:29:10;;;;;;;30.75;5.28;;;;;;;;;;4917310;29;20279;-84
2024/03/30 03:31:55;;;;;;;25.05;6.20;;;;;;;;;;4929787;29;20027;-84
2024/03/30 03:34:41;;;;;;;29.10;5.85;;;;;;;;;;4929568;29;20105;-85
2024/03/30 03:37:26;;;;;;;22.48;5.40;;;;;;;;;;4930025;29;20126;-83
2024/03/30 03:40:11;;;;;;;34.67;6.93;;;;;;;;;;4943380;29;20028;-84
2024/03/30 03:42:57;;;;;;;35.72;6.75;;;;;;;;;;4929967;29;20019;-83
2024/03/30 03:45:45;;;;;;;32.47;6.90;;;;;;;;;;4929618;29;20475;-85
2024/03/30 03:48:31;;;;;;;38.67;6.37;;;;;;;;;;4943258;29;20059;-85
2024/03/30 03:51:16;;;;;;;32.47;6.63;;;;;;;;;;4943283;29;20032;-84
2024/03/30 03:54:01;;;;;;;26.13;7.03;;;;;;;;;;4942345;28;20297;-85
2024/03/30 03:56:46;;;;;;;40.10;6.45;;;;;;;;;;4929828;29;20059;-85
2024/03/30 03:59:32;;;;;;;31.23;7.00;;;;;;;;;;4930433;29;20020;-85
2024/03/30 04:02:17;;;;;;;40.85;7.30;;;;;;;;;;4939456;28;20040;-83
2024/03/30 04:05:02;;;;;;;39.05;7.45;;;;;;;;;;4909197;28;20055;-84
2024/03/30 04:07:48;;;;;;;45.25;7.88;;;;;;;;;;4912683;28;20085;-84
2024/03/30 04:10:34;;;;;;;40.10;9.50;;;;;;;;;;4940013;29;20058;-83
2024/03/30 04:13:19;;;;;;;41.08;8.98;;;;;;;;;;4926179;28;20019;-84
2024/03/30 04:16:05;;;;;;;37.40;10.32;;;;;;;;;;4925383;29;20110;-84
2024/03/30 04:18:53;;;;;;;38.67;8.82;;;;;;;;;;4925793;29;20090;-84
2024/03/30 04:21:38;;;;;;;37.25;7.78;;;;;;;;;;4926208;29;20054;-84
2024/03/30 04:24:23;;;;;;;40.47;9.52;;;;;;;;;;4925141;29;20486;-84
2024/03/30 04:27:09;;;;;;;36.03;8.07;;;;;;;;;;4926078;29;20032;-84
2024/03/30 04:29:55;;;;;;;34.25;6.38;;;;;;;;;;4925866;29;20390;-83
2024/03/30 04:32:41;;;;;;;36.05;6.60;;;;;;;;;;4925716;29;20047;-82
2024/03/30 04:35:26;;;;;;;42.88;7.75;;;;;;;;;;4925801;29;20030;-83
2024/03/30 04:38:11;;;;;;;39.10;7.80;;;;;;;;;;4925659;29;20036;-82
2024/03/30 04:40:58;;;;;;;40.55;7.90;;;;;;;;;;4925380;29;20035;-82
2024/03/30 04:43:43;;;;;;;36.63;7.97;;;;;;;;;;4939079;29;20024;-82
2024/03/30 04:46:28;;;;;;;34.85;7.32;;;;;;;;;;4938679;29;20040;-82
2024/03/30 04:49:13;;;;;;;37.67;8.77;;;;;;;;;;4925731;29;20027;-84
2024/03/30 04:51:58;;;;;;;40.35;7.30;;;;;;;;;;4925525;29;20031;-84
2024/03/30 04:54:43;;;;;;;32.30;6.60;;;;;;;;;;4925332;29;20028;-84
2024/03/30 04:57:29;;;;;;;45.90;7.47;;;;;;;;;;4925675;28;20115;-82
2024/03/30 05:00:14;;;;;;;33.40;8.23;;;;;;;;;;4911921;29;20085;-84
2024/03/30 05:02:59;;;;;;;33.15;6.82;;;;;;;;;;4925717;29;20252;-84
2024/03/30 05:05:45;;;;;;;33.67;8.18;;;;;;;;;;4938509;28;20031;-83
2024/03/30 05:08:30;;;;;;;31.23;6.88;;;;;;;;;;4925545;29;20031;-84
2024/03/30 05:11:16;;;;;;;32.40;7.22;;;;;;;;;;4925152;29;20020;-83
2024/03/30 05:14:01;;;;;;;28.23;6.10;;;;;;;;;;4925239;28;20023;-83
2024/03/30 05:16:46;;;;;;;31.40;7.78;;;;;;;;;;4924971;29;20050;-84
2024/03/30 05:22:35;;;;;;;32.88;7.72;;;;;;;;;;4925201;29;20426;-83
2024/03/30 05:25:20;;;;;;;29.55;7.90;;;;;;;;;;4994666;28;20115;-84
2024/03/30 05:28:06;;;;;;;30.90;5.93;;;;;;;;;;4938478;28;20028;-84
2024/03/30 05:30:51;;;;;;;30.65;6.65;;;;;;;;;;4994276;28;20090;-84
2024/03/30 05:33:37;;;;;;;28.23;6.82;;;;;;;;;;4938385;28;20051;-83
2024/03/30 05:36:22;;;;;;;32.33;7.40;;;;;;;;;;4939106;28;20445;-83
2024/03/30 05:39:07;;;;;;;36.22;7.05;;;;;;;;;;4907659;29;20035;-84
2024/03/30 05:41:52;;;;;;;30.02;6.78;;;;;;;;;;4919329;29;20039;-84
2024/03/30 05:44:37;;;;;;;24.50;5.18;;;;;;;;;;4906366;28;20020;-84
2024/03/30 05:47:23;;;;;;;27.60;6.20;;;;;;;;;;4931995;28;20034;-84
2024/03/30 05:50:08;;;;;;;26.90;5.97;;;;;;;;;;4905796;29;20028;-84
2024/03/30 05:52:53;;;;;;;28.77;6.22;;;;;;;;;;4918909;29;20032;-84
2024/03/30 05:55:39;;;;;;;31.20;6.00;;;;;;;;;;4918814;29;20036;-84
2024/03/30 05:58:25;;;;;;;30.27;5.13;;;;;;;;;;4905871;28;20036;-84
2024/03/30 06:01:10;;;;;;;24.92;5.97;;;;;;;;;;4905622;29;20040;-83
2024/03/30 06:03:55;;;;;;;39.05;6.95;;;;;;;;;;4905916;29;20036;-83
2024/03/30 06:06:40;;;;;;;30.52;7.07;;;;;;;;;;4905593;29;20082;-84
2024/03/30 06:09:26;;;;;;;24.63;6.15;;;;;;;;;;4922034;29;20036;-85
2024/03/30 06:12:11;;;;;;;32.17;7.85;;;;;;;;;;4924607;29;20042;-82
2024/03/30 06:14:56;;;;;;;36.05;8.10;;;;;;;;;;4910726;29;20055;-84
2024/03/30 06:17:42;;;;;;;26.90;6.82;;;;;;;;;;4926329;29;20031;-82
2024/03/30 06:20:28;;;;;;;28.88;6.40;;;;;;;;;;4941026;28;20044;-85
2024/03/30 06:23:13;;;;;;;31.25;6.78;;;;;;;;;;4927295;29;20471;-83
2024/03/30 06:25:58;;;;;;;32.83;5.72;;;;;;;;;;4927616;29;20479;-84
2024/03/30 06:28:43;;;;;;;28.60;6.55;;;;;;;;;;4930545;29;20111;-84
2024/03/30 06:31:28;;;;;;;34.03;5.63;;;;;;;;;;4928682;29;20120;-84
2024/03/30 06:34:14;;;;;;;25.27;5.03;;;;;;;;;;4929990;29;20067;-84
2024/03/30 06:36:59;;;;;;;29.60;6.85;;;;;;;;;;4950443;29;20028;-84
2024/03/30 06:45:52;;;;;;;28.65;4.85;;;;;;;;;;4940830;29;20038;-84
2024/03/30 06:48:38;;;;;;;24.23;6.43;;;;;;;;;;4927392;29;20032;-84
2024/03/30 06:51:23;;;;;;;32.03;6.88;;;;;;;;;;4927028;29;20032;-84
2024/03/30 06:54:08;;;;;;;20.27;4.38;;;;;;;;;;4927388;29;20035;-84
2024/03/30 06:56:53;;;;;;;31.08;5.10;;;;;;;;;;4927600;29;20066;-85
2024/03/30 06:59:38;;;;;;;32.95;5.57;;;;;;;;;;4926782;29;20028;-84
2024/03/30 07:02:24;;;;;;;24.90;5.03;;;;;;;;;;4930071;28;20039;-84
2024/03/30 07:05:09;;;;;;;33.85;6.93;;;;;;;;;;4929784;29;20075;-84
2024/03/30 07:07:55;;;;;;;29.25;5.97;;;;;;;;;;4911816;29;20081;-84
2024/03/30 07:10:40;;;;;;;27.02;6.03;;;;;;;;;;4940349;29;20016;-84
2024/03/30 07:13:25;;;;;;;26.50;5.25;;;;;;;;;;4926595;29;20031;-83
2024/03/30 07:16:11;;;;;;;42.88;8.45;;;;;;;;;;4939938;29;20131;-83
2024/03/30 07:18:56;;;;;;;26.75;6.22;;;;;;;;;;4926175;29;20086;-84
2024/03/30 07:21:41;;;;;;;27.20;5.50;;;;;;;;;;4926877;29;20039;-83
2024/03/30 07:24:26;;;;;;;18.27;5.20;;;;;;;;;;4926768;29;20368;-83
2024/03/30 07:27:11;;;;;;;33.88;6.80;;;;;;;;;;4926579;29;20110;-84
2024/03/30 07:29:57;;;;;;;25.55;5.93;;;;;;;;;;4926157;29;20382;-83
2024/03/30 07:32:42;;;;;;;32.80;6.40;;;;;;;;;;4926699;29;20035;-84
2024/03/30 07:35:27;;;;;;;24.30;4.82;;;;;;;;;;4927121;29;20070;-84
2024/03/30 07:38:12;;;;;;;26.70;4.80;;;;;;;;;;4939348;29;20031;-83
2024/03/30 07:40:58;;;;;;;33.20;5.70;;;;;;;;;;4926303;29;20027;-84
2024/03/30 07:43:43;;;;;;;33.08;6.25;;;;;;;;;;4926668;29;20114;-83
2024/03/30 07:46:29;;;;;;;27.45;6.28;;;;;;;;;;4926164;29;20027;-84
2024/03/30 07:49:14;;;;;;;30.38;6.90;;;;;;;;;;4926253;29;20082;-83
2024/03/30 07:52:00;;;;;;;22.65;5.68;;;;;;;;;;4939923;29;20036;-84
2024/03/30 07:54:45;;;;;;;21.70;5.53;;;;;;;;;;4926325;29;20039;-84
2024/03/30 07:57:30;;;;;;;31.10;7.60;;;;;;;;;;4926752;29;20078;-83
2024/03/30 08:00:15;;;;;;;28.42;8.02;;;;;;;;;;4912301;29;20131;-83
2024/03/30 08:03:01;;;;;;;26.52;6.25;;;;;;;;;;4906724;29;20550;-83
2024/03/30 08:05:58;;;;;;;21.70;6.45;;;;;;;;;;4907261;29;20043;-84
2024/03/30 08:08:43;;;;;;;23.90;5.50;;;;;;;;;;4917938;29;20089;-83
2024/03/30 08:11:28;;;;;;;19.17;5.45;;;;;;;;;;4925569;29;20032;-83
2024/03/30 08:14:16;;;;;;;28.67;5.72;;;;;;;;;;4925922;29;20039;-83
2024/03/30 08:17:01;;;;;;;32.83;5.78;;;;;;;;;;4925629;29;20113;-83
2024/03/30 08:19:47;;;;;;;25.67;5.18;;;;;;;;;;4939010;29;20024;-83
2024/03/30 08:22:32;;;;;;;19.60;5.43;;;;;;;;;;4925612;29;20039;-83
2024/03/30 08:25:17;;;;;;;31.83;6.30;;;;;;;;;;4926346;29;20166;-84
2024/03/30 08:28:02;;;;;;;27.65;6.25;;;;;;;;;;4926092;29;20024;-84
2024/03/30 08:30:49;;;;;;;31.10;7.82;;;;;;;;;;4925347;29;20023;-82
2024/03/30 08:33:34;;;;;;;26.50;6.80;;;;;;;;;;4939247;29;20122;-83
2024/03/30 08:36:20;;;;;;;38.53;5.30;;;;;;;;;;4906822;29;20039;-85
2024/03/30 08:39:05;;;;;;;25.00;6.05;;;;;;;;;;4919778;29;20140;-84
2024/03/30 08:41:50;;;;;;;25.02;5.80;;;;;;;;;;4925701;29;20081;-85
2024/03/30 08:44:36;;;;;;;26.25;6.40;;;;;;;;;;4938736;29;20086;-83
2024/03/30 08:47:21;;;;;;;28.40;5.55;;;;;;;;;;4927406;29;20036;-85
2024/03/30 08:50:06;;;;;;;22.10;5.28;;;;;;;;;;4926890;28;20035;-84
2024/03/30 08:52:51;;;;;;;27.50;5.57;;;;;;;;;;4939010;29;20053;-82
2024/03/30 08:55:37;;;;;;;20.63;5.68;;;;;;;;;;4995562;28;20035;-83
2024/03/30 08:58:23;;;;;;;29.30;5.90;;;;;;;;;;4926024;29;20024;-83
2024/03/30 09:01:09;;;;;;;22.55;5.18;;;;;;;;;;4905852;29;20024;-83
2024/03/30 09:03:55;;;;;;;25.13;5.28;;;;;;;;;;4906236;29;20067;-84
2024/03/30 09:06:41;;;;;;;32.25;8.02;;;;;;;;;;4906772;29;20036;-84
2024/03/30 09:09:28;;;;;;;34.10;5.85;;;;;;;;;;4923949;29;20067;-84
2024/03/30 09:12:14;;;;;;;21.77;6.22;;;;;;;;;;4925564;29;20422;-84
2024/03/30 09:14:59;;;;;;;24.70;5.65;;;;;;;;;;4925315;29;20060;-84
2024/03/30 09:17:45;;;;;;;23.17;5.93;;;;;;;;;;4925502;29;20063;-84
2024/03/30 09:20:30;;;;;;;33.90;7.60;;;;;;;;;;4925167;29;20042;-84
2024/03/30 09:23:15;;;;;;;34.60;7.05;;;;;;;;;;4925396;29;20097;-83
2024/03/30 09:26:00;;;;;;;26.17;5.78;;;;;;;;;;4925156;29;20036;-84
2024/03/30 09:28:46;;;;;;;32.05;7.43;;;;;;;;;;4924493;29;20031;-84
2024/03/30 09:31:31;;;;;;;24.42;5.93;;;;;;;;;;4924240;29;20030;-84
2024/03/30 09:34:16;;;;;;;30.67;5.68;;;;;;;;;;4924759;29;20099;-84
2024/03/30 09:37:07;;;;;;;34.83;6.07;;;;;;;;;;4924867;29;20024;-84
2024/03/30 09:39:52;;;;;;;33.97;6.93;;;;;;;;;;4905759;29;20032;-84
2024/03/30 09:42:40;;;;;;;26.60;6.15;;;;;;;;;;4906345;29;20030;-84
2024/03/30 09:45:29;;;;;;;25.35;5.28;;;;;;;;;;4905881;29;20255;-85
2024/03/30 09:48:16;;;;;;;33.85;7.10;;;;;;;;;;4906241;29;20029;-86
2024/03/30 09:51:01;;;;;;;33.47;6.18;;;;;;;;;;4892816;29;20155;-84
2024/03/30 09:53:47;;;;;;;37.78;8.30;;;;;;;;;;4909072;29;20529;-85
2024/03/30 09:56:33;;;;;;;28.95;6.00;;;;;;;;;;4927444;28;20035;-85
2024/03/30 09:59:18;;;;;;;30.65;7.20;;;;;;;;;;4935192;29;20036;-83
2024/03/30 10:02:04;;;;;;;23.95;7.00;;;;;;;;;;4908938;29;20067;-85
2024/03/30 10:04:49;;;;;;;26.38;6.68;;;;;;;;;;4908938;29;20024;-84
2024/03/30 10:07:35;;;;;;;25.00;5.95;;;;;;;;;;4897567;29;20051;-82
2024/03/30 10:10:24;;;;;;;35.17;6.38;;;;;;;;;;4928096;29;20150;-84
2024/03/30 10:13:19;;;;;;;25.13;6.35;;;;;;;;;;4928211;29;20047;-84
2024/03/30 10:16:04;;;;;;;33.70;6.30;;;;;;;;;;4940895;29;20063;-83
2024/03/30 10:18:50;;;;;;;29.85;6.60;;;;;;;;;;4928526;29;20545;-83
2024/03/30 10:21:35;;;;;;;32.00;8.20;;;;;;;;;;4940964;29;20078;-83
2024/03/30 10:24:21;;;;;;;30.58;7.15;;;;;;;;;;4927849;29;20027;-83
2024/03/30 10:27:07;;;;;;;38.17;7.43;;;;;;;;;;4941010;29;20311;-82
2024/03/30 10:29:52;;;;;;;31.00;6.93;;;;;;;;;;4927701;28;20073;-83
2024/03/30 10:32:39;;;;;;;30.92;6.78;;;;;;;;;;4927677;29;20042;-83
2024/03/30 10:35:26;;;;;;;29.40;8.35;;;;;;;;;;4927476;29;20028;-83
2024/03/30 10:38:11;;;;;;;40.20;7.57;;;;;;;;;;4927695;29;20028;-83
2024/03/30 10:40:57;;;;;;;37.05;7.72;;;;;;;;;;4927075;29;20019;-83
2024/03/30 10:43:42;;;;;;;30.25;8.38;;;;;;;;;;4927740;29;20024;-83
2024/03/30 10:46:27;;;;;;;29.10;7.50;;;;;;;;;;4927116;29;20166;-83
2024/03/30 10:49:13;;;;;;;30.02;7.93;;;;;;;;;;4927190;29;20031;-83
2024/03/30 10:51:59;;;;;;;25.88;6.53;;;;;;;;;;4940806;29;20173;-83
2024/03/30 10:54:44;;;;;;;40.03;8.98;;;;;;;;;;4927653;29;20454;-83
2024/03/30 10:57:30;;;;;;;34.83;7.13;;;;;;;;;;4940316;28;20122;-83
2024/03/30 11:00:15;;;;;;;29.63;8.95;;;;;;;;;;4926796;28;20521;-83
2024/03/30 11:03:00;;;;;;;36.90;9.85;;;;;;;;;;4977153;28;20040;-85
2024/03/30 11:05:45;;;;;;;28.23;7.30;;;;;;;;;;4908386;29;20067;-83
2024/03/30 11:08:32;;;;;;;34.50;8.82;;;;;;;;;;4930281;29;20479;-84
2024/03/30 11:11:17;;;;;;;46.85;9.73;;;;;;;;;;4926749;29;20024;-83
2024/03/30 11:14:02;;;;;;;30.10;7.13;;;;;;;;;;4940535;29;20066;-84
2024/03/30 11:16:51;;;;;;;33.95;8.77;;;;;;;;;;4927389;29;20058;-82
2024/03/30 11:19:39;;;;;;;46.50;9.57;;;;;;;;;;4926882;29;20047;-83
2024/03/30 11:22:27;;;;;;;41.13;10.27;;;;;;;;;;4940242;29;20019;-84
2024/03/30 11:25:13;;;;;;;39.20;8.65;;;;;;;;;;4926766;29;20030;-84
2024/03/30 11:28:06;;;;;;;28.10;8.68;;;;;;;;;;4926696;29;20028;-84
2024/03/30 11:31:04;;;;;;;34.33;7.57;;;;;;;;;;4926758;29;20028;-84
2024/03/30 11:34:06;;;;;;;35.95;8.15;;;;;;;;;;4926739;29;20405;-84
2024/03/30 11:36:54;;;;;;;32.13;7.78;;;;;;;;;;4926615;29;20406;-83
2024/03/30 11:43:20;;;;;;;27.40;8.55;;;;;;;;;;4931100;29;20395;-84
2024/03/30 11:46:06;;;;;;;38.50;8.30;;;;;;;;;;4929070;29;20032;-84
2024/03/30 11:48:52;;;;;;;33.30;8.80;;;;;;;;;;4933380;29;20036;-83
2024/03/30 11:51:40;;;;;;;37.15;8.15;;;;;;;;;;4933930;29;20039;-84
2024/03/30 11:54:26;;;;;;;33.53;7.40;;;;;;;;;;4929808;29;20039;-84
2024/03/30 11:57:12;;;;;;;32.50;7.85;;;;;;;;;;4931252;29;20028;-83
2024/03/30 11:59:57;;;;;;;39.65;9.02;;;;;;;;;;4930411;29;20024;-83
2024/03/30 12:02:44;;;;;;;41.45;9.23;;;;;;;;;;4929382;29;20034;-82
2024/03/30 12:05:29;;;;;;;34.67;7.60;;;;;;;;;;4939880;29;20016;-83
2024/03/30 12:08:15;;;;;;;29.85;8.00;;;;;;;;;;4925899;29;20034;-83
2024/03/30 12:11:02;;;;;;;32.35;8.93;;;;;;;;;;4935628;29;20036;-83
2024/03/30 12:13:47;;;;;;;37.30;9.27;;;;;;;;;;4941594;29;20028;-83
2024/03/30 12:16:37;;;;;;;37.83;8.77;;;;;;;;;;4927542;29;20048;-84
2024/03/30 12:19:23;;;;;;;24.92;7.80;;;;;;;;;;4921566;29;20058;-83
2024/03/30 12:22:08;;;;;;;29.75;8.02;;;;;;;;;;4920579;29;20115;-83
2024/03/30 12:24:54;;;;;;;31.85;8.60;;;;;;;;;;4906786;29;20046;-83
2024/03/30 12:27:42;;;;;;;29.70;9.13;;;;;;;;;;4906688;29;20590;-84
2024/03/30 12:30:27;;;;;;;31.48;9.27;;;;;;;;;;4920509;29;20114;-84
2024/03/30 12:33:13;;;;;;;38.85;8.98;;;;;;;;;;4906388;29;20031;-84
2024/03/30 12:35:58;;;;;;;40.90;8.90;;;;;;;;;;4906735;29;20530;-83
2024/03/30 12:38:44;;;;;;;38.97;9.73;;;;;;;;;;4917421;29;20042;-83
2024/03/30 12:41:29;;;;;;;29.25;7.95;;;;;;;;;;4938896;29;20110;-85
2024/03/30 12:44:14;;;;;;;37.72;8.35;;;;;;;;;;4919521;29;20048;-84
2024/03/30 12:47:00;;;;;;;28.20;8.27;;;;;;;;;;4920093;29;20054;-84
2024/03/30 12:49:45;;;;;;;33.38;8.57;;;;;;;;;;4893547;29;20063;-84
2024/03/30 12:52:30;;;;;;;37.47;9.60;;;;;;;;;;4906065;29;20036;-84
2024/03/30 12:55:15;;;;;;;33.58;8.18;;;;;;;;;;4906490;29;20122;-84
2024/03/30 12:58:02;;;;;;;46.65;10.15;;;;;;;;;;4919562;29;20035;-84
2024/03/30 13:00:48;;;;;;;42.53;8.55;;;;;;;;;;4919754;29;20068;-84
2024/03/30 13:03:38;;;;;;;45.88;10.43;;;;;;;;;;4906303;29;20082;-83
2024/03/30 13:06:23;;;;;;;30.25;7.47;;;;;;;;;;4905954;29;20066;-84
2024/03/30 13:09:17;;;;;;;34.30;5.63;;;;;;;;;;4914829;29;20028;-84
2024/03/30 13:12:02;;;;;;;30.60;6.55;;;;;;;;;;4906359;29;20399;-84
2024/03/30 13:14:48;;;;;;;27.58;6.18;;;;;;;;;;4906423;28;20116;-84
2024/03/30 13:17:33;;;;;;;27.27;5.90;;;;;;;;;;4924851;29;20086;-83
2024/03/30 13:20:20;;;;;;;25.40;5.47;;;;;;;;;;4924721;29;20055;-84
2024/03/30 13:23:05;;;;;;;26.92;5.15;;;;;;;;;;4925091;29;20036;-84
2024/03/30 13:25:50;;;;;;;28.88;5.32;;;;;;;;;;4925419;29;20528;-83
2024/03/30 13:28:36;;;;;;;29.75;5.97;;;;;;;;;;4915065;29;20031;-84
2024/03/30 13:31:21;;;;;;;35.53;7.90;;;;;;;;;;4928456;29;20039;-84
2024/03/30 13:34:07;;;;;;;29.95;5.35;;;;;;;;;;4928852;29;20158;-83
2024/03/30 13:36:52;;;;;;;21.05;6.20;;;;;;;;;;4928624;29;20062;-82
2024/03/30 13:39:37;;;;;;;39.72;6.05;;;;;;;;;;4922414;29;20040;-85
2024/03/30 13:42:22;;;;;;;37.17;6.45;;;;;;;;;;4909587;29;20028;-83
2024/03/30 13:45:08;;;;;;;24.30;5.07;;;;;;;;;;4922233;29;20086;-85
2024/03/30 13:47:53;;;;;;;25.63;4.97;;;;;;;;;;4910214;29;20119;-85
2024/03/30 13:50:38;;;;;;;31.17;5.90;;;;;;;;;;4909584;29;20030;-83
2024/03/30 13:53:24;;;;;;;21.60;5.03;;;;;;;;;;4909541;29;20024;-84
2024/03/30 13:56:09;;;;;;;28.33;6.95;;;;;;;;;;4909269;29;20075;-84
2024/03/30 13:58:54;;;;;;;27.73;6.95;;;;;;;;;;4912462;29;20027;-83
2024/03/30 14:01:39;;;;;;;25.40;5.40;;;;;;;;;;4928009;29;20030;-83
2024/03/30 14:04:25;;;;;;;29.92;5.88;;;;;;;;;;4927955;29;20024;-84
2024/03/30 14:07:10;;;;;;;22.20;4.97;;;;;;;;;;4930181;29;20561;-84
2024/03/30 14:09:55;;;;;;;28.83;5.32;;;;;;;;;;4923684;29;20098;-84
2024/03/30 14:12:41;;;;;;;24.48;5.28;;;;;;;;;;4921784;29;20023;-84
2024/03/30 14:15:26;;;;;;;25.23;6.10;;;;;;;;;;4927623;29;20066;-83
2024/03/30 14:18:11;;;;;;;33.50;5.18;;;;;;;;;;4927664;29;20024;-83
2024/03/30 14:20:56;;;;;;;32.30;7.50;;;;;;;;;;4928967;28;20113;-83
2024/03/30 14:23:42;;;;;;;28.60;6.05;;;;;;;;;;4927691;29;20027;-83
2024/03/30 14:26:27;;;;;;;32.85;6.90;;;;;;;;;;4928057;29;20024;-83
2024/03/30 14:29:12;;;;;;;37.80;7.70;;;;;;;;;;4927913;29;20253;-85
2024/03/30 14:31:58;;;;;;;34.33;6.78;;;;;;;;;;4928372;29;20070;-84
2024/03/30 14:34:43;;;;;;;33.08;7.88;;;;;;;;;;4927770;29;20027;-84
2024/03/30 14:37:28;;;;;;;24.13;5.18;;;;;;;;;;4927187;29;20039;-84
2024/03/30 14:40:14;;;;;;;35.83;6.30;;;;;;;;;;4925467;29;20086;-84
2024/03/30 14:43:00;;;;;;;30.10;5.70;;;;;;;;;;4941256;29;20031;-84
2024/03/30 14:45:45;;;;;;;35.03;7.28;;;;;;;;;;4928078;29;20067;-85
2024/03/30 14:48:30;;;;;;;49.45;7.80;;;;;;;;;;4941165;28;20291;-85
2024/03/30 14:51:16;;;;;;;31.10;7.28;;;;;;;;;;4927804;29;20024;-84
2024/03/30 14:54:02;;;;;;;38.03;6.25;;;;;;;;;;4927687;29;20357;-83
2024/03/30 14:56:47;;;;;;;31.95;5.85;;;;;;;;;;4927384;29;20027;-82
2024/03/30 14:59:32;;;;;;;38.15;8.10;;;;;;;;;;4919166;29;20081;-84
2024/03/30 15:02:17;;;;;;;39.33;6.53;;;;;;;;;;4921400;29;20062;-83
2024/03/30 15:05:03;;;;;;;38.45;6.50;;;;;;;;;;4895343;29;20043;-83
2024/03/30 15:07:48;;;;;;;34.33;6.63;;;;;;;;;;4912047;29;20016;-83
2024/03/30 15:10:33;;;;;;;37.10;7.72;;;;;;;;;;4927688;29;20172;-83
2024/03/30 15:13:19;;;;;;;27.48;6.80;;;;;;;;;;4927450;29;20028;-85
2024/03/30 15:16:04;;;;;;;33.45;5.95;;;;;;;;;;4926554;29;20044;-83
2024/03/30 15:18:49;;;;;;;35.42;8.77;;;;;;;;;;4940668;28;20443;-84
2024/03/30 15:21:34;;;;;;;37.42;7.25;;;;;;;;;;4927648;29;20062;-83
2024/03/30 15:24:20;;;;;;;46.88;7.18;;;;;;;;;;4927497;29;20034;-83
2024/03/30 15:27:05;;;;;;;40.60;6.82;;;;;;;;;;4927306;29;20126;-83
2024/03/30 15:32:54;;;;;;;38.67;7.70;;;;;;;;;;4926285;28;20028;-84
2024/03/30 15:35:39;;;;;;;37.40;6.68;;;;;;;;;;4927280;29;20118;-84
2024/03/30 15:38:25;;;;;;;35.13;8.15;;;;;;;;;;4927012;29;20042;-83
2024/03/30 15:41:11;;;;;;;32.80;6.90;;;;;;;;;;4927099;29;20024;-84
2024/03/30 15:43:56;;;;;;;44.33;7.78;;;;;;;;;;4926692;28;20035;-84
2024/03/30 15:46:42;;;;;;;33.70;6.40;;;;;;;;;;4939837;29;20023;-84
2024/03/30 15:49:28;;;;;;;24.58;6.05;;;;;;;;;;4925518;29;20038;-84
2024/03/30 15:52:13;;;;;;;28.05;7.10;;;;;;;;;;4927177;29;20028;-84
2024/03/30 15:55:00;;;;;;;39.35;7.75;;;;;;;;;;4996232;28;20050;-84
2024/03/30 15:57:45;;;;;;;34.92;6.22;;;;;;;;;;4926772;29;20036;-84
2024/03/30 16:00:30;;;;;;;31.63;6.63;;;;;;;;;;4911613;29;20034;-83
2024/03/30 16:03:16;;;;;;;38.13;7.47;;;;;;;;;;4908223;29;20040;-84
2024/03/30 16:06:03;;;;;;;25.73;6.00;;;;;;;;;;4939850;29;20386;-84
2024/03/30 16:08:48;;;;;;;34.65;6.53;;;;;;;;;;4920662;29;20024;-84
2024/03/30 16:11:34;;;;;;;29.33;6.65;;;;;;;;;;4907751;29;20060;-82
2024/03/30 16:14:19;;;;;;;43.33;7.28;;;;;;;;;;4907631;29;20028;-84
2024/03/30 16:17:05;;;;;;;41.08;8.75;;;;;;;;;;4907418;29;20072;-83
2024/03/30 16:19:50;;;;;;;35.65;6.43;;;;;;;;;;4907066;29;20024;-84
2024/03/30 16:22:35;;;;;;;37.33;8.55;;;;;;;;;;4907356;29;20036;-84
2024/03/30 16:25:20;;;;;;;30.45;5.88;;;;;;;;;;4907519;29;20043;-84
2024/03/30 16:28:06;;;;;;;43.58;7.03;;;;;;;;;;4915886;29;20024;-84
2024/03/30 16:30:52;;;;;;;27.02;5.53;;;;;;;;;;4907310;29;20479;-84
2024/03/30 16:33:37;;;;;;;28.20;7.97;;;;;;;;;;4907442;29;20090;-83
2024/03/30 16:36:23;;;;;;;35.17;6.32;;;;;;;;;;4907877;29;20024;-84